sensor_id;sensor_type;location;lat;lon;timestamp;temperature;humidity
9271;DHT22;4673;53.458;9.940;2023-07-13T00:00:00;15.50;97.50
9271;DHT22;4673;53.458;9.940;2023-07-13T00:02:26;15.40;97.50
9271;DHT22;4673;53.458;9.940;2023-07-13T00:04:52;15.30;97.80
9271;DHT22;4673;53.458;9.940;2023-07-13T00:07:18;15.30;97.90
9271;DHT22;4673;53.458;9.940;2023-07-13T00:09:47;15.20;98.20
9271;DHT22;4673;53.458;9.940;2023-07-13T00:12:36;15.20;98.40
9271;DHT22;4673;53.458;9.940;2023-07-13T00:15:06;15.20;98.90
9271;DHT22;4673;53.458;9.940;2023-07-13T00:17:32;15.10;99.00
9271;DHT22;4673;53.458;9.940;2023-07-13T00:19:57;15.10;98.90
9271;DHT22;4673;53.458;9.940;2023-07-13T00:22:24;15.00;98.80
9271;DHT22;4673;53.458;9.940;2023-07-13T00:24:52;14.90;98.90
9271;DHT22;4673;53.458;9.940;2023-07-13T00:27:18;14.80;98.90
9271;DHT22;4673;53.458;9.940;2023-07-13T00:29:43;14.80;99.20
9271;DHT22;4673;53.458;9.940;2023-07-13T00:32:10;14.70;99.50
9271;DHT22;4673;53.458;9.940;2023-07-13T00:34:37;14.70;99.90
9271;DHT22;4673;53.458;9.940;2023-07-13T00:37:04;14.70;99.90
9271;DHT22;4673;53.458;9.940;2023-07-13T00:39:32;14.70;99.90
9271;DHT22;4673;53.458;9.940;2023-07-13T00:41:59;14.70;99.90
9271;DHT22;4673;53.458;9.940;2023-07-13T00:44:25;14.60;99.90
9271;DHT22;4673;53.458;9.940;2023-07-13T00:46:51;14.60;99.90
9271;DHT22;4673;53.458;9.940;2023-07-13T00:49:20;14.50;99.90
9271;DHT22;4673;53.458;9.940;2023-07-13T00:51:53;14.50;99.90
9271;DHT22;4673;53.458;9.940;2023-07-13T00:54:35;14.50;99.90
9271;DHT22;4673;53.458;9.940;2023-07-13T00:57:05;14.40;99.90
9271;DHT22;4673;53.458;9.940;2023-07-13T00:59:34;14.40;99.90
9271;DHT22;4673;53.458;9.940;2023-07-13T01:02:00;14.40;99.90
9271;DHT22;4673;53.458;9.940;2023-07-13T01:04:26;14.40;99.90
9271;DHT22;4673;53.458;9.940;2023-07-13T01:06:52;14.40;99.90
9271;DHT22;4673;53.458;9.940;2023-07-13T01:09:20;14.40;99.90
9271;DHT22;4673;53.458;9.940;2023-07-13T01:11:47;14.40;99.90
9271;DHT22;4673;53.458;9.940;2023-07-13T01:14:13;14.40;99.90
9271;DHT22;4673;53.458;9.940;2023-07-13T01:16:41;14.40;99.90
9271;DHT22;4673;53.458;9.940;2023-07-13T01:19:44;14.30;99.90
9271;DHT22;4673;53.458;9.940;2023-07-13T01:22:18;14.30;99.90
9271;DHT22;4673;53.458;9.940;2023-07-13T01:24:46;14.30;99.90
9271;DHT22;4673;53.458;9.940;2023-07-13T01:27:17;14.30;99.90
9271;DHT22;4673;53.458;9.940;2023-07-13T01:29:44;14.30;99.90
9271;DHT22;4673;53.458;9.940;2023-07-13T01:32:16;14.30;99.90
9271;DHT22;4673;53.458;9.940;2023-07-13T01:34:41;14.30;99.90
9271;DHT22;4673;53.458;9.940;2023-07-13T01:37:09;14.30;99.90
9271;DHT22;4673;53.458;9.940;2023-07-13T01:39:35;14.20;99.90
9271;DHT22;4673;53.458;9.940;2023-07-13T01:42:01;14.20;99.90
9271;DHT22;4673;53.458;9.940;2023-07-13T01:44:27;14.20;99.90
9271;DHT22;4673;53.458;9.940;2023-07-13T01:46:53;14.20;99.90
9271;DHT22;4673;53.458;9.940;2023-07-13T01:49:18;14.20;99.90
9271;DHT22;4673;53.458;9.940;2023-07-13T01:51:44;14.10;99.90
9271;DHT22;4673;53.458;9.940;2023-07-13T01:54:09;14.10;99.90
9271;DHT22;4673;53.458;9.940;2023-07-13T01:56:35;14.10;99.90
9271;DHT22;4673;53.458;9.940;2023-07-13T01:59:01;14.10;99.90
9271;DHT22;4673;53.458;9.940;2023-07-13T02:01:26;13.90;99.90
9271;DHT22;4673;53.458;9.940;2023-07-13T02:03:53;14.10;99.90
9271;DHT22;4673;53.458;9.940;2023-07-13T02:06:18;14.10;99.90
9271;DHT22;4673;53.458;9.940;2023-07-13T02:08:44;14.10;99.90
9271;DHT22;4673;53.458;9.940;2023-07-13T02:11:10;14.10;99.90
9271;DHT22;4673;53.458;9.940;2023-07-13T02:13:36;14.10;99.90
9271;DHT22;4673;53.458;9.940;2023-07-13T02:16:01;14.10;99.90
9271;DHT22;4673;53.458;9.940;2023-07-13T02:18:27;14.10;99.90
9271;DHT22;4673;53.458;9.940;2023-07-13T02:20:53;14.10;99.90
9271;DHT22;4673;53.458;9.940;2023-07-13T02:23:18;14.10;99.90
9271;DHT22;4673;53.458;9.940;2023-07-13T02:25:44;14.10;99.90
9271;DHT22;4673;53.458;9.940;2023-07-13T02:28:10;14.10;99.90
9271;DHT22;4673;53.458;9.940;2023-07-13T02:30:36;14.10;99.90
9271;DHT22;4673;53.458;9.940;2023-07-13T02:33:02;14.00;99.90
9271;DHT22;4673;53.458;9.940;2023-07-13T02:35:27;14.00;99.90
9271;DHT22;4673;53.458;9.940;2023-07-13T02:37:53;14.00;99.90
9271;DHT22;4673;53.458;9.940;2023-07-13T02:40:19;14.00;99.90
9271;DHT22;4673;53.458;9.940;2023-07-13T02:42:45;13.90;99.90
9271;DHT22;4673;53.458;9.940;2023-07-13T02:45:10;13.90;99.90
9271;DHT22;4673;53.458;9.940;2023-07-13T02:47:41;13.90;99.90
9271;DHT22;4673;53.458;9.940;2023-07-13T02:50:08;13.90;99.90
9271;DHT22;4673;53.458;9.940;2023-07-13T02:52:33;13.80;99.90
9271;DHT22;4673;53.458;9.940;2023-07-13T02:54:59;13.80;99.90
9271;DHT22;4673;53.458;9.940;2023-07-13T02:57:25;13.80;99.90
9271;DHT22;4673;53.458;9.940;2023-07-13T02:59:50;13.80;99.90
9271;DHT22;4673;53.458;9.940;2023-07-13T03:02:16;13.70;99.90
9271;DHT22;4673;53.458;9.940;2023-07-13T03:04:42;13.70;99.90
9271;DHT22;4673;53.458;9.940;2023-07-13T03:07:08;13.70;99.90
9271;DHT22;4673;53.458;9.940;2023-07-13T03:09:34;13.70;99.90
9271;DHT22;4673;53.458;9.940;2023-07-13T03:12:00;13.70;99.90
9271;DHT22;4673;53.458;9.940;2023-07-13T03:14:26;13.70;99.90
9271;DHT22;4673;53.458;9.940;2023-07-13T03:16:52;13.70;99.90
9271;DHT22;4673;53.458;9.940;2023-07-13T03:19:18;13.70;99.90
9271;DHT22;4673;53.458;9.940;2023-07-13T03:21:44;13.70;99.90
9271;DHT22;4673;53.458;9.940;2023-07-13T03:24:10;13.60;99.90
9271;DHT22;4673;53.458;9.940;2023-07-13T03:26:35;13.60;99.90
9271;DHT22;4673;53.458;9.940;2023-07-13T03:29:01;13.70;99.90
9271;DHT22;4673;53.458;9.940;2023-07-13T03:31:28;13.70;99.90
9271;DHT22;4673;53.458;9.940;2023-07-13T03:33:55;13.70;99.90
9271;DHT22;4673;53.458;9.940;2023-07-13T03:36:27;13.70;99.90
9271;DHT22;4673;53.458;9.940;2023-07-13T03:38:56;13.70;99.90
9271;DHT22;4673;53.458;9.940;2023-07-13T03:41:23;13.70;99.90
9271;DHT22;4673;53.458;9.940;2023-07-13T03:43:49;13.70;99.90
9271;DHT22;4673;53.458;9.940;2023-07-13T03:46:15;13.70;99.90
9271;DHT22;4673;53.458;9.940;2023-07-13T03:48:43;13.80;99.90
9271;DHT22;4673;53.458;9.940;2023-07-13T03:51:11;13.90;99.90
9271;DHT22;4673;53.458;9.940;2023-07-13T03:53:41;13.90;99.90
9271;DHT22;4673;53.458;9.940;2023-07-13T03:56:07;13.90;99.90
9271;DHT22;4673;53.458;9.940;2023-07-13T03:58:36;14.00;99.90
9271;DHT22;4673;53.458;9.940;2023-07-13T04:01:03;14.00;99.90
9271;DHT22;4673;53.458;9.940;2023-07-13T04:03:31;14.00;99.90
9271;DHT22;4673;53.458;9.940;2023-07-13T04:05:59;14.10;99.90
9271;DHT22;4673;53.458;9.940;2023-07-13T04:08:30;14.10;99.90
9271;DHT22;4673;53.458;9.940;2023-07-13T04:10:56;14.20;99.90
9271;DHT22;4673;53.458;9.940;2023-07-13T04:13:23;14.30;99.90
9271;DHT22;4673;53.458;9.940;2023-07-13T04:15:50;14.40;99.90
9271;DHT22;4673;53.458;9.940;2023-07-13T04:18:15;14.40;99.90
9271;DHT22;4673;53.458;9.940;2023-07-13T04:20:41;14.50;99.90
9271;DHT22;4673;53.458;9.940;2023-07-13T04:23:07;14.60;99.90
9271;DHT22;4673;53.458;9.940;2023-07-13T04:25:32;14.60;99.90
9271;DHT22;4673;53.458;9.940;2023-07-13T04:27:58;14.70;99.90
9271;DHT22;4673;53.458;9.940;2023-07-13T04:30:24;14.70;99.90
9271;DHT22;4673;53.458;9.940;2023-07-13T04:32:51;14.80;99.90
9271;DHT22;4673;53.458;9.940;2023-07-13T04:35:21;14.80;99.90
9271;DHT22;4673;53.458;9.940;2023-07-13T04:37:48;14.90;99.90
9271;DHT22;4673;53.458;9.940;2023-07-13T04:40:16;15.00;99.90
9271;DHT22;4673;53.458;9.940;2023-07-13T04:42:43;15.00;99.90
9271;DHT22;4673;53.458;9.940;2023-07-13T04:45:09;15.10;99.90
9271;DHT22;4673;53.458;9.940;2023-07-13T04:47:35;15.20;99.90
9271;DHT22;4673;53.458;9.940;2023-07-13T04:50:01;15.30;99.90
9271;DHT22;4673;53.458;9.940;2023-07-13T04:52:27;15.40;99.90
9271;DHT22;4673;53.458;9.940;2023-07-13T04:54:52;15.60;99.90
9271;DHT22;4673;53.458;9.940;2023-07-13T04:57:18;15.80;99.90
9271;DHT22;4673;53.458;9.940;2023-07-13T04:59:46;16.20;99.90
9271;DHT22;4673;53.458;9.940;2023-07-13T05:02:12;16.60;98.20
9271;DHT22;4673;53.458;9.940;2023-07-13T05:04:37;17.00;95.90
9271;DHT22;4673;53.458;9.940;2023-07-13T05:07:04;17.20;92.80
9271;DHT22;4673;53.458;9.940;2023-07-13T05:09:30;17.50;90.10
9271;DHT22;4673;53.458;9.940;2023-07-13T05:11:56;17.70;87.90
9271;DHT22;4673;53.458;9.940;2023-07-13T05:14:21;17.80;85.00
9271;DHT22;4673;53.458;9.940;2023-07-13T05:16:47;17.90;82.10
9271;DHT22;4673;53.458;9.940;2023-07-13T05:19:12;18.10;81.30
9271;DHT22;4673;53.458;9.940;2023-07-13T05:21:38;18.20;79.50
9271;DHT22;4673;53.458;9.940;2023-07-13T05:24:04;18.30;78.30
9271;DHT22;4673;53.458;9.940;2023-07-13T05:26:29;18.40;77.30
9271;DHT22;4673;53.458;9.940;2023-07-13T05:28:55;18.30;74.80
9271;DHT22;4673;53.458;9.940;2023-07-13T05:31:21;18.40;75.20
9271;DHT22;4673;53.458;9.940;2023-07-13T05:33:46;18.20;74.20
9271;DHT22;4673;53.458;9.940;2023-07-13T05:36:12;18.10;74.20
9271;DHT22;4673;53.458;9.940;2023-07-13T05:38:37;17.90;74.80
9271;DHT22;4673;53.458;9.940;2023-07-13T05:41:03;17.80;75.10
9271;DHT22;4673;53.458;9.940;2023-07-13T05:43:29;17.70;75.30
9271;DHT22;4673;53.458;9.940;2023-07-13T05:45:56;17.60;75.90
9271;DHT22;4673;53.458;9.940;2023-07-13T05:48:22;17.60;76.60
9271;DHT22;4673;53.458;9.940;2023-07-13T05:50:48;17.60;76.70
9271;DHT22;4673;53.458;9.940;2023-07-13T05:53:13;17.80;77.30
9271;DHT22;4673;53.458;9.940;2023-07-13T05:55:43;17.90;76.70
9271;DHT22;4673;53.458;9.940;2023-07-13T05:58:09;17.90;75.80
9271;DHT22;4673;53.458;9.940;2023-07-13T06:00:35;17.90;75.90
9271;DHT22;4673;53.458;9.940;2023-07-13T06:03:00;18.10;75.50
9271;DHT22;4673;53.458;9.940;2023-07-13T06:05:26;18.20;75.60
9271;DHT22;4673;53.458;9.940;2023-07-13T06:07:54;18.30;74.90
9271;DHT22;4673;53.458;9.940;2023-07-13T06:10:20;18.40;73.60
9271;DHT22;4673;53.458;9.940;2023-07-13T06:12:46;18.40;73.00
9271;DHT22;4673;53.458;9.940;2023-07-13T06:15:13;18.40;72.80
9271;DHT22;4673;53.458;9.940;2023-07-13T06:17:40;18.40;72.50
9271;DHT22;4673;53.458;9.940;2023-07-13T06:20:06;18.20;72.30
9271;DHT22;4673;53.458;9.940;2023-07-13T06:22:32;18.20;73.40
9271;DHT22;4673;53.458;9.940;2023-07-13T06:24:58;18.20;73.30
9271;DHT22;4673;53.458;9.940;2023-07-13T06:27:24;18.30;73.70
9271;DHT22;4673;53.458;9.940;2023-07-13T06:29:50;18.40;73.40
9271;DHT22;4673;53.458;9.940;2023-07-13T06:32:15;18.60;72.70
9271;DHT22;4673;53.458;9.940;2023-07-13T06:34:41;18.70;71.90
9271;DHT22;4673;53.458;9.940;2023-07-13T06:37:06;18.80;70.90
9271;DHT22;4673;53.458;9.940;2023-07-13T06:39:32;18.80;70.60
9271;DHT22;4673;53.458;9.940;2023-07-13T06:41:58;18.90;70.20
9271;DHT22;4673;53.458;9.940;2023-07-13T06:44:23;18.90;70.10
9271;DHT22;4673;53.458;9.940;2023-07-13T06:46:49;19.00;70.10
9271;DHT22;4673;53.458;9.940;2023-07-13T06:49:15;19.00;69.70
9271;DHT22;4673;53.458;9.940;2023-07-13T06:51:40;19.10;69.60
9271;DHT22;4673;53.458;9.940;2023-07-13T06:54:06;19.10;69.10
9271;DHT22;4673;53.458;9.940;2023-07-13T06:56:32;19.20;68.80
9271;DHT22;4673;53.458;9.940;2023-07-13T06:58:57;19.40;68.40
9271;DHT22;4673;53.458;9.940;2023-07-13T07:01:23;19.50;67.70
9271;DHT22;4673;53.458;9.940;2023-07-13T07:03:48;19.70;67.10
9271;DHT22;4673;53.458;9.940;2023-07-13T07:06:19;19.90;66.40
9271;DHT22;4673;53.458;9.940;2023-07-13T07:08:46;20.10;65.60
9271;DHT22;4673;53.458;9.940;2023-07-13T07:11:13;20.20;64.40
9271;DHT22;4673;53.458;9.940;2023-07-13T07:13:40;20.20;63.00
9271;DHT22;4673;53.458;9.940;2023-07-13T07:16:06;20.10;63.00
9271;DHT22;4673;53.458;9.940;2023-07-13T07:18:32;19.90;62.80
9271;DHT22;4673;53.458;9.940;2023-07-13T07:20:57;19.60;64.30
9271;DHT22;4673;53.458;9.940;2023-07-13T07:23:23;19.50;65.10
9271;DHT22;4673;53.458;9.940;2023-07-13T07:25:49;19.50;65.90
9271;DHT22;4673;53.458;9.940;2023-07-13T07:28:16;19.60;66.50
9271;DHT22;4673;53.458;9.940;2023-07-13T07:30:45;19.50;66.60
9271;DHT22;4673;53.458;9.940;2023-07-13T07:33:11;19.40;67.10
9271;DHT22;4673;53.458;9.940;2023-07-13T07:35:36;19.40;67.80
9271;DHT22;4673;53.458;9.940;2023-07-13T07:38:02;19.50;67.20
9271;DHT22;4673;53.458;9.940;2023-07-13T07:40:28;19.70;66.10
9271;DHT22;4673;53.458;9.940;2023-07-13T07:42:54;19.90;64.00
9271;DHT22;4673;53.458;9.940;2023-07-13T07:45:20;20.00;64.80
9271;DHT22;4673;53.458;9.940;2023-07-13T07:47:46;20.20;62.90
9271;DHT22;4673;53.458;9.940;2023-07-13T07:50:13;20.20;63.10
9271;DHT22;4673;53.458;9.940;2023-07-13T07:52:39;20.30;62.50
9271;DHT22;4673;53.458;9.940;2023-07-13T07:55:06;20.50;62.40
9271;DHT22;4673;53.458;9.940;2023-07-13T07:57:32;20.50;61.80
9271;DHT22;4673;53.458;9.940;2023-07-13T07:59:58;20.40;61.50
9271;DHT22;4673;53.458;9.940;2023-07-13T08:02:24;20.60;60.90
9271;DHT22;4673;53.458;9.940;2023-07-13T08:04:50;20.70;60.80
9271;DHT22;4673;53.458;9.940;2023-07-13T08:07:16;20.70;60.10
9271;DHT22;4673;53.458;9.940;2023-07-13T08:09:42;20.70;58.70
9271;DHT22;4673;53.458;9.940;2023-07-13T08:12:08;20.80;59.30
9271;DHT22;4673;53.458;9.940;2023-07-13T08:14:34;20.90;59.40
9271;DHT22;4673;53.458;9.940;2023-07-13T08:16:59;20.90;57.90
9271;DHT22;4673;53.458;9.940;2023-07-13T08:19:25;20.90;58.30
9271;DHT22;4673;53.458;9.940;2023-07-13T08:21:51;21.10;58.00
9271;DHT22;4673;53.458;9.940;2023-07-13T08:24:16;21.30;57.80
9271;DHT22;4673;53.458;9.940;2023-07-13T08:26:44;21.10;57.20
9271;DHT22;4673;53.458;9.940;2023-07-13T08:29:11;21.20;57.40
9271;DHT22;4673;53.458;9.940;2023-07-13T08:31:37;21.30;56.10
9271;DHT22;4673;53.458;9.940;2023-07-13T08:34:03;21.50;54.90
9271;DHT22;4673;53.458;9.940;2023-07-13T08:36:29;21.80;53.20
9271;DHT22;4673;53.458;9.940;2023-07-13T08:38:55;21.80;52.70
9271;DHT22;4673;53.458;9.940;2023-07-13T08:41:21;21.70;53.70
9271;DHT22;4673;53.458;9.940;2023-07-13T08:43:50;21.60;51.70
9271;DHT22;4673;53.458;9.940;2023-07-13T08:46:37;21.60;52.30
9271;DHT22;4673;53.458;9.940;2023-07-13T08:49:18;21.80;52.60
9271;DHT22;4673;53.458;9.940;2023-07-13T08:51:55;22.10;51.40
9271;DHT22;4673;53.458;9.940;2023-07-13T08:56:58;22.80;47.10
9271;DHT22;4673;53.458;9.940;2023-07-13T08:59:28;23.20;46.00
9271;DHT22;4673;53.458;9.940;2023-07-13T09:02:28;23.30;42.70
9271;DHT22;4673;53.458;9.940;2023-07-13T09:08:29;23.10;43.20
9271;DHT22;4673;53.458;9.940;2023-07-13T09:10:33;22.80;43.60
9271;DHT22;4673;53.458;9.940;2023-07-13T09:15:49;22.00;45.80
9271;DHT22;4673;53.458;9.940;2023-07-13T09:18:44;21.90;47.40
9271;DHT22;4673;53.458;9.940;2023-07-13T09:23:43;21.60;48.50
9271;DHT22;4673;53.458;9.940;2023-07-13T09:26:17;21.60;49.90
9271;DHT22;4673;53.458;9.940;2023-07-13T09:28:45;21.90;51.00
9271;DHT22;4673;53.458;9.940;2023-07-13T09:31:19;22.30;49.60
9271;DHT22;4673;53.458;9.940;2023-07-13T09:33:47;22.60;48.00
9271;DHT22;4673;53.458;9.940;2023-07-13T09:36:31;22.90;46.60
9271;DHT22;4673;53.458;9.940;2023-07-13T09:39:30;22.90;45.30
9271;DHT22;4673;53.458;9.940;2023-07-13T09:42:15;22.70;44.30
9271;DHT22;4673;53.458;9.940;2023-07-13T09:47:21;22.80;44.70
9271;DHT22;4673;53.458;9.940;2023-07-13T09:49:54;23.00;43.90
9271;DHT22;4673;53.458;9.940;2023-07-13T09:52:20;22.90;42.10
9271;DHT22;4673;53.458;9.940;2023-07-13T09:54:49;22.80;41.70
9271;DHT22;4673;53.458;9.940;2023-07-13T09:57:18;22.70;42.60
9271;DHT22;4673;53.458;9.940;2023-07-13T09:59:50;22.60;40.90
9271;DHT22;4673;53.458;9.940;2023-07-13T10:05:04;23.10;40.10
9271;DHT22;4673;53.458;9.940;2023-07-13T10:07:31;22.90;39.40
9271;DHT22;4673;53.458;9.940;2023-07-13T10:10:00;23.00;38.50
9271;DHT22;4673;53.458;9.940;2023-07-13T10:12:27;22.90;38.50
9271;DHT22;4673;53.458;9.940;2023-07-13T10:14:57;22.80;39.60
9271;DHT22;4673;53.458;9.940;2023-07-13T10:17:31;22.60;39.50
9271;DHT22;4673;53.458;9.940;2023-07-13T10:20:05;22.40;39.30
9271;DHT22;4673;53.458;9.940;2023-07-13T10:23:00;22.10;40.40
9271;DHT22;4673;53.458;9.940;2023-07-13T10:25:34;22.40;42.30
9271;DHT22;4673;53.458;9.940;2023-07-13T10:30:40;22.80;38.30
9271;DHT22;4673;53.458;9.940;2023-07-13T10:33:11;23.00;37.50
9271;DHT22;4673;53.458;9.940;2023-07-13T10:35:39;23.20;35.70
9271;DHT22;4673;53.458;9.940;2023-07-13T10:38:11;23.30;33.80
9271;DHT22;4673;53.458;9.940;2023-07-13T10:40:40;23.40;34.20
9271;DHT22;4673;53.458;9.940;2023-07-13T10:43:20;23.60;32.30
9271;DHT22;4673;53.458;9.940;2023-07-13T10:45:48;23.60;29.80
9271;DHT22;4673;53.458;9.940;2023-07-13T10:48:15;23.50;28.70
9271;DHT22;4673;53.458;9.940;2023-07-13T10:50:45;23.00;29.00
9271;DHT22;4673;53.458;9.940;2023-07-13T10:53:33;23.00;31.20
9271;DHT22;4673;53.458;9.940;2023-07-13T10:56:00;23.10;31.80
9271;DHT22;4673;53.458;9.940;2023-07-13T10:58:35;23.10;30.90
9271;DHT22;4673;53.458;9.940;2023-07-13T11:01:13;23.10;31.70
9271;DHT22;4673;53.458;9.940;2023-07-13T11:06:42;22.80;30.50
9271;DHT22;4673;53.458;9.940;2023-07-13T11:09:40;22.60;31.20
9271;DHT22;4673;53.458;9.940;2023-07-13T11:15:06;22.60;31.20
9271;DHT22;4673;53.458;9.940;2023-07-13T11:17:38;22.80;31.20
9271;DHT22;4673;53.458;9.940;2023-07-13T11:23:06;23.60;31.30
9271;DHT22;4673;53.458;9.940;2023-07-13T11:25:34;23.80;26.70
9271;DHT22;4673;53.458;9.940;2023-07-13T11:28:20;23.90;26.50
9271;DHT22;4673;53.458;9.940;2023-07-13T11:31:01;23.80;24.80
9271;DHT22;4673;53.458;9.940;2023-07-13T11:36:13;24.20;24.20
9271;DHT22;4673;53.458;9.940;2023-07-13T11:39:03;24.40;21.10
9271;DHT22;4673;53.458;9.940;2023-07-13T11:41:37;24.20;23.20
9271;DHT22;4673;53.458;9.940;2023-07-13T11:44:12;24.10;24.80
9271;DHT22;4673;53.458;9.940;2023-07-13T11:46:38;24.40;23.90
9271;DHT22;4673;53.458;9.940;2023-07-13T11:49:07;24.70;21.00
9271;DHT22;4673;53.458;9.940;2023-07-13T11:51:36;24.60;14.90
9271;DHT22;4673;53.458;9.940;2023-07-13T11:54:30;24.80;17.50
9271;DHT22;4673;53.458;9.940;2023-07-13T11:56:59;25.10;16.10
9271;DHT22;4673;53.458;9.940;2023-07-13T11:59:28;24.80;13.20
9271;DHT22;4673;53.458;9.940;2023-07-13T12:01:55;24.80;17.20
9271;DHT22;4673;53.458;9.940;2023-07-13T12:04:27;24.90;15.10
9271;DHT22;4673;53.458;9.940;2023-07-13T12:07:14;24.80;14.60
9271;DHT22;4673;53.458;9.940;2023-07-13T12:09:40;24.70;14.70
9271;DHT22;4673;53.458;9.940;2023-07-13T12:12:28;24.50;15.30
9271;DHT22;4673;53.458;9.940;2023-07-13T12:14:55;24.30;15.90
9271;DHT22;4673;53.458;9.940;2023-07-13T12:17:22;24.20;16.70
9271;DHT22;4673;53.458;9.940;2023-07-13T12:19:50;23.50;18.10
9271;DHT22;4673;53.458;9.940;2023-07-13T12:22:18;22.80;19.80
9271;DHT22;4673;53.458;9.940;2023-07-13T12:24:45;22.20;22.00
9271;DHT22;4673;53.458;9.940;2023-07-13T12:27:24;21.40;29.40
9271;DHT22;4673;53.458;9.940;2023-07-13T12:30:04;20.70;35.60
9271;DHT22;4673;53.458;9.940;2023-07-13T12:32:30;20.20;43.70
9271;DHT22;4673;53.458;9.940;2023-07-13T12:35:14;20.10;45.80
9271;DHT22;4673;53.458;9.940;2023-07-13T12:37:45;20.20;50.50
9271;DHT22;4673;53.458;9.940;2023-07-13T12:40:20;20.30;51.10
9271;DHT22;4673;53.458;9.940;2023-07-13T12:42:49;20.20;49.00
9271;DHT22;4673;53.458;9.940;2023-07-13T12:45:24;20.40;49.20
9271;DHT22;4673;53.458;9.940;2023-07-13T12:47:54;20.10;49.70
9271;DHT22;4673;53.458;9.940;2023-07-13T12:50:22;20.10;49.40
9271;DHT22;4673;53.458;9.940;2023-07-13T12:53:05;20.20;49.50
9271;DHT22;4673;53.458;9.940;2023-07-13T12:55:53;20.30;47.60
9271;DHT22;4673;53.458;9.940;2023-07-13T12:58:38;20.20;48.20
9271;DHT22;4673;53.458;9.940;2023-07-13T13:01:05;20.30;47.80
9271;DHT22;4673;53.458;9.940;2023-07-13T13:03:45;20.40;44.20
9271;DHT22;4673;53.458;9.940;2023-07-13T13:08:48;20.10;44.10
9271;DHT22;4673;53.458;9.940;2023-07-13T13:11:19;20.10;45.40
9271;DHT22;4673;53.458;9.940;2023-07-13T13:13:45;19.90;45.40
9271;DHT22;4673;53.458;9.940;2023-07-13T13:16:26;19.90;48.10
9271;DHT22;4673;53.458;9.940;2023-07-13T13:18:59;20.10;46.80
9271;DHT22;4673;53.458;9.940;2023-07-13T13:21:26;20.10;46.90
9271;DHT22;4673;53.458;9.940;2023-07-13T13:23:52;20.40;48.00
9271;DHT22;4673;53.458;9.940;2023-07-13T13:26:19;20.90;47.00
9271;DHT22;4673;53.458;9.940;2023-07-13T13:28:46;21.30;41.70
9271;DHT22;4673;53.458;9.940;2023-07-13T13:31:13;21.70;41.60
9271;DHT22;4673;53.458;9.940;2023-07-13T13:33:45;22.00;36.70
9271;DHT22;4673;53.458;9.940;2023-07-13T13:36:22;22.20;35.20
9271;DHT22;4673;53.458;9.940;2023-07-13T13:38:49;22.40;34.20
9271;DHT22;4673;53.458;9.940;2023-07-13T13:41:16;22.30;35.90
9271;DHT22;4673;53.458;9.940;2023-07-13T13:43:42;22.40;36.40
9271;DHT22;4673;53.458;9.940;2023-07-13T13:46:21;22.40;35.30
9271;DHT22;4673;53.458;9.940;2023-07-13T13:48:55;22.20;36.80
9271;DHT22;4673;53.458;9.940;2023-07-13T13:51:23;22.10;38.10
9271;DHT22;4673;53.458;9.940;2023-07-13T13:53:49;22.20;39.00
9271;DHT22;4673;53.458;9.940;2023-07-13T13:56:17;22.30;38.20
9271;DHT22;4673;53.458;9.940;2023-07-13T13:58:43;22.40;37.90
9271;DHT22;4673;53.458;9.940;2023-07-13T14:01:14;22.40;38.50
9271;DHT22;4673;53.458;9.940;2023-07-13T14:03:41;22.30;38.60
9271;DHT22;4673;53.458;9.940;2023-07-13T14:06:12;22.30;39.00
9271;DHT22;4673;53.458;9.940;2023-07-13T14:08:38;22.30;37.70
9271;DHT22;4673;53.458;9.940;2023-07-13T14:11:04;22.30;37.70
9271;DHT22;4673;53.458;9.940;2023-07-13T14:13:36;22.40;37.80
9271;DHT22;4673;53.458;9.940;2023-07-13T14:16:15;22.50;34.20
9271;DHT22;4673;53.458;9.940;2023-07-13T14:18:44;22.40;33.40
9271;DHT22;4673;53.458;9.940;2023-07-13T14:21:12;22.50;35.30
9271;DHT22;4673;53.458;9.940;2023-07-13T14:23:38;22.50;33.30
9271;DHT22;4673;53.458;9.940;2023-07-13T14:26:12;22.40;31.70
9271;DHT22;4673;53.458;9.940;2023-07-13T14:28:42;22.10;31.90
9271;DHT22;4673;53.458;9.940;2023-07-13T14:31:09;21.80;31.90
9271;DHT22;4673;53.458;9.940;2023-07-13T14:33:35;22.00;33.10
9271;DHT22;4673;53.458;9.940;2023-07-13T14:36:01;22.10;32.50
9271;DHT22;4673;53.458;9.940;2023-07-13T14:38:27;22.20;33.30
9271;DHT22;4673;53.458;9.940;2023-07-13T14:40:53;22.20;33.40
9271;DHT22;4673;53.458;9.940;2023-07-13T14:43:18;22.00;34.40
9271;DHT22;4673;53.458;9.940;2023-07-13T14:45:46;22.10;35.10
9271;DHT22;4673;53.458;9.940;2023-07-13T14:48:22;22.20;34.50
9271;DHT22;4673;53.458;9.940;2023-07-13T14:50:58;22.40;34.60
9271;DHT22;4673;53.458;9.940;2023-07-13T14:53:26;22.60;32.60
9271;DHT22;4673;53.458;9.940;2023-07-13T14:55:53;22.70;32.20
9271;DHT22;4673;53.458;9.940;2023-07-13T14:58:19;23.00;32.10
9271;DHT22;4673;53.458;9.940;2023-07-13T15:00:45;23.00;31.20
9271;DHT22;4673;53.458;9.940;2023-07-13T15:03:23;22.80;31.50
9271;DHT22;4673;53.458;9.940;2023-07-13T15:05:50;22.70;32.50
9271;DHT22;4673;53.458;9.940;2023-07-13T15:08:16;22.30;33.80
9271;DHT22;4673;53.458;9.940;2023-07-13T15:10:42;22.30;36.00
9271;DHT22;4673;53.458;9.940;2023-07-13T15:13:20;22.40;36.40
9271;DHT22;4673;53.458;9.940;2023-07-13T15:15:51;22.90;35.30
9271;DHT22;4673;53.458;9.940;2023-07-13T15:18:19;23.00;33.10
9271;DHT22;4673;53.458;9.940;2023-07-13T15:20:47;22.50;33.80
9271;DHT22;4673;53.458;9.940;2023-07-13T15:23:15;22.30;35.90
9271;DHT22;4673;53.458;9.940;2023-07-13T15:25:42;22.30;36.80
9271;DHT22;4673;53.458;9.940;2023-07-13T15:28:10;22.40;36.30
9271;DHT22;4673;53.458;9.940;2023-07-13T15:30:41;22.20;35.30
9271;DHT22;4673;53.458;9.940;2023-07-13T15:33:30;22.20;36.60
9271;DHT22;4673;53.458;9.940;2023-07-13T15:35:56;22.30;37.30
9271;DHT22;4673;53.458;9.940;2023-07-13T15:38:29;22.40;36.00
9271;DHT22;4673;53.458;9.940;2023-07-13T15:40:56;21.90;34.30
9271;DHT22;4673;53.458;9.940;2023-07-13T15:43:22;21.60;36.10
9271;DHT22;4673;53.458;9.940;2023-07-13T15:45:49;21.70;36.30
9271;DHT22;4673;53.458;9.940;2023-07-13T15:48:18;21.60;35.00
9271;DHT22;4673;53.458;9.940;2023-07-13T15:50:48;21.70;35.10
9271;DHT22;4673;53.458;9.940;2023-07-13T15:53:25;21.70;33.50
9271;DHT22;4673;53.458;9.940;2023-07-13T15:55:51;21.60;33.30
9271;DHT22;4673;53.458;9.940;2023-07-13T15:58:18;21.70;34.60
9271;DHT22;4673;53.458;9.940;2023-07-13T16:00:44;21.90;34.70
9271;DHT22;4673;53.458;9.940;2023-07-13T16:03:10;21.90;32.70
9271;DHT22;4673;53.458;9.940;2023-07-13T16:05:36;22.00;33.00
9271;DHT22;4673;53.458;9.940;2023-07-13T16:08:03;22.00;32.00
9271;DHT22;4673;53.458;9.940;2023-07-13T16:10:37;21.80;32.70
9271;DHT22;4673;53.458;9.940;2023-07-13T16:13:13;21.80;33.00
9271;DHT22;4673;53.458;9.940;2023-07-13T16:15:39;21.70;32.50
9271;DHT22;4673;53.458;9.940;2023-07-13T16:18:10;21.60;33.00
9271;DHT22;4673;53.458;9.940;2023-07-13T16:20:37;21.60;31.90
9271;DHT22;4673;53.458;9.940;2023-07-13T16:23:04;21.60;32.70
9271;DHT22;4673;53.458;9.940;2023-07-13T16:25:29;21.70;32.00
9271;DHT22;4673;53.458;9.940;2023-07-13T16:27:56;21.80;32.00
9271;DHT22;4673;53.458;9.940;2023-07-13T16:30:29;22.00;31.50
9271;DHT22;4673;53.458;9.940;2023-07-13T16:32:58;22.20;30.10
9271;DHT22;4673;53.458;9.940;2023-07-13T16:35:29;22.30;29.70
9271;DHT22;4673;53.458;9.940;2023-07-13T16:37:55;22.40;27.90
9271;DHT22;4673;53.458;9.940;2023-07-13T16:40:25;22.10;29.20
9271;DHT22;4673;53.458;9.940;2023-07-13T16:42:53;22.00;29.70
9271;DHT22;4673;53.458;9.940;2023-07-13T16:45:20;21.80;30.80